Time;durP1;ratioP1;P1;durP2;ratioP2;P2;SDS_P1;SDS_P2;PMS_P1;PMS_P2;Temp;Humidity;BMP_temperature;BMP_pressure;BME280_temperature;BME280_humidity;BME280_pressure;Samples;Min_cycle;Max_cycle;Signal;HPM_P1;HPM_P2
2023/12/13 00:00:20;;;;;;;14.05;6.30;;;;;;;;;;5112610;28;20148;-66
2023/12/13 00:03:05;;;;;;;11.60;5.50;;;;;;;;;;5094562;28;20028;-66
2023/12/13 00:05:51;;;;;;;11.63;6.03;;;;;;;;;;5091863;28;20056;-66
2023/12/13 00:08:36;;;;;;;14.68;6.43;;;;;;;;;;5098917;28;20026;-66
2023/12/13 00:11:22;;;;;;;14.73;6.55;;;;;;;;;;5112439;28;20019;-66
2023/12/13 00:14:08;;;;;;;12.70;6.15;;;;;;;;;;5112708;28;20072;-66
2023/12/13 00:16:54;;;;;;;14.02;5.68;;;;;;;;;;5097851;28;20054;-66
2023/12/13 00:19:40;;;;;;;12.27;5.13;;;;;;;;;;5112230;28;20031;-66
2023/12/13 00:22:25;;;;;;;14.20;6.22;;;;;;;;;;5098512;28;20408;-66
2023/12/13 00:25:11;;;;;;;8.20;6.00;;;;;;;;;;5092246;28;20527;-66
2023/12/13 00:27:57;;;;;;;11.07;6.00;;;;;;;;;;5101770;28;20107;-66
2023/12/13 00:30:43;;;;;;;9.77;4.90;;;;;;;;;;5082658;28;20022;-66
2023/12/13 00:33:29;;;;;;;10.88;5.28;;;;;;;;;;5091921;28;20089;-66
2023/12/13 00:36:14;;;;;;;14.95;6.35;;;;;;;;;;5093896;28;20032;-66
2023/12/13 00:39:00;;;;;;;9.85;4.95;;;;;;;;;;5091590;28;20069;-66
2023/12/13 00:41:45;;;;;;;14.10;5.55;;;;;;;;;;5101600;28;20027;-66
2023/12/13 00:44:26;;;;;;;8.93;5.07;;;;;;;;;;5078811;23;20037;-66
2023/12/13 00:47:11;;;;;;;10.18;5.38;;;;;;;;;;5071701;28;20028;-66
2023/12/13 00:49:57;;;;;;;8.88;4.57;;;;;;;;;;5052060;28;20021;-66
2023/12/13 00:52:42;;;;;;;13.25;5.18;;;;;;;;;;5051553;28;20029;-66
2023/12/13 00:55:28;;;;;;;10.23;4.78;;;;;;;;;;5052809;28;20021;-66
2023/12/13 00:58:14;;;;;;;11.25;4.68;;;;;;;;;;5053386;28;20017;-66
2023/12/13 01:01:00;;;;;;;9.10;4.68;;;;;;;;;;5073466;28;20065;-66
2023/12/13 01:03:46;;;;;;;12.77;4.47;;;;;;;;;;5074769;28;20031;-66
2023/12/13 01:06:33;;;;;;;11.00;4.88;;;;;;;;;;5062170;28;20033;-66
2023/12/13 01:09:19;;;;;;;9.90;4.43;;;;;;;;;;5040863;28;20021;-66
2023/12/13 01:12:06;;;;;;;9.50;4.57;;;;;;;;;;5065720;28;20032;-66
2023/12/13 01:14:51;;;;;;;9.73;4.60;;;;;;;;;;5040736;28;20056;-66
2023/12/13 01:17:37;;;;;;;9.95;6.03;;;;;;;;;;5053259;28;20033;-66
2023/12/13 01:20:23;;;;;;;11.52;4.93;;;;;;;;;;5054320;28;20029;-66
2023/12/13 01:23:08;;;;;;;11.38;4.82;;;;;;;;;;5053407;28;20029;-66
2023/12/13 01:25:54;;;;;;;15.40;5.38;;;;;;;;;;5055320;28;20052;-66
2023/12/13 01:28:39;;;;;;;12.45;5.60;;;;;;;;;;5072860;28;20031;-66
2023/12/13 01:31:25;;;;;;;10.23;5.15;;;;;;;;;;5075341;28;20028;-66
2023/12/13 01:34:11;;;;;;;14.73;5.38;;;;;;;;;;5075001;28;20020;-66
2023/12/13 01:36:56;;;;;;;8.95;4.78;;;;;;;;;;5056064;28;20016;-66
2023/12/13 01:39:42;;;;;;;13.13;5.80;;;;;;;;;;5054674;28;20017;-66
2023/12/13 01:42:27;;;;;;;15.00;5.25;;;;;;;;;;5064095;28;20056;-66
2023/12/13 01:45:13;;;;;;;9.50;5.25;;;;;;;;;;5073816;28;20024;-66
2023/12/13 01:47:59;;;;;;;8.52;4.85;;;;;;;;;;5055415;28;20505;-66
2023/12/13 01:50:45;;;;;;;10.88;5.47;;;;;;;;;;5054904;28;20029;-66
2023/12/13 01:53:32;;;;;;;8.57;4.85;;;;;;;;;;5055421;28;20057;-66
2023/12/13 01:56:18;;;;;;;10.40;5.35;;;;;;;;;;5040214;28;20478;-66
2023/12/13 01:59:04;;;;;;;12.23;5.10;;;;;;;;;;5054257;28;20016;-66
2023/12/13 02:01:52;;;;;;;10.38;5.15;;;;;;;;;;5064887;28;20020;-66
2023/12/13 02:04:38;;;;;;;13.88;5.32;;;;;;;;;;5060641;28;20033;-66
2023/12/13 02:07:24;;;;;;;9.27;3.83;;;;;;;;;;5059247;28;20017;-66
2023/12/13 02:10:10;;;;;;;9.68;4.72;;;;;;;;;;5075086;28;20051;-66
2023/12/13 02:12:56;;;;;;;9.93;5.20;;;;;;;;;;5073175;28;20390;-66
2023/12/13 02:15:44;;;;;;;11.15;4.90;;;;;;;;;;5085285;28;20028;-66
2023/12/13 02:18:30;;;;;;;10.55;4.95;;;;;;;;;;5041164;28;20123;-66
2023/12/13 02:21:16;;;;;;;9.75;4.72;;;;;;;;;;5053494;28;20025;-66
2023/12/13 02:24:03;;;;;;;11.30;4.78;;;;;;;;;;5069388;28;20477;-66
2023/12/13 02:26:50;;;;;;;9.90;4.35;;;;;;;;;;5059441;28;20497;-66
2023/12/13 02:29:36;;;;;;;17.70;5.80;;;;;;;;;;5058880;28;20020;-66
2023/12/13 02:32:21;;;;;;;10.52;4.70;;;;;;;;;;5058798;28;20040;-66
2023/12/13 02:35:07;;;;;;;12.43;5.00;;;;;;;;;;5072331;28;20016;-66
2023/12/13 02:37:53;;;;;;;12.18;4.82;;;;;;;;;;5054454;28;20047;-66
2023/12/13 02:40:38;;;;;;;12.50;4.45;;;;;;;;;;5054852;28;20041;-66
2023/12/13 02:43:24;;;;;;;15.32;4.75;;;;;;;;;;5057825;28;20090;-66
2023/12/13 02:46:10;;;;;;;9.95;5.15;;;;;;;;;;5054330;28;20021;-66
2023/12/13 02:48:58;;;;;;;8.65;4.07;;;;;;;;;;5060141;28;20048;-66
2023/12/13 02:51:44;;;;;;;9.13;4.93;;;;;;;;;;5059568;28;20036;-66
2023/12/13 02:54:30;;;;;;;12.07;5.30;;;;;;;;;;5072487;28;20029;-66
2023/12/13 02:57:15;;;;;;;11.43;5.30;;;;;;;;;;5073325;28;20406;-66
2023/12/13 03:00:01;;;;;;;18.13;5.25;;;;;;;;;;5072996;28;20051;-66
2023/12/13 03:02:47;;;;;;;13.88;5.50;;;;;;;;;;5073463;28;20024;-66
2023/12/13 03:05:32;;;;;;;11.93;4.57;;;;;;;;;;5073767;28;20020;-66
2023/12/13 03:08:18;;;;;;;12.15;4.95;;;;;;;;;;5072598;28;20074;-66
2023/12/13 03:11:04;;;;;;;12.55;4.78;;;;;;;;;;5054697;28;20028;-66
2023/12/13 03:13:49;;;;;;;17.10;5.70;;;;;;;;;;5053591;28;20017;-66
2023/12/13 03:16:35;;;;;;;17.45;6.30;;;;;;;;;;5056042;28;20025;-66
2023/12/13 03:19:21;;;;;;;17.02;6.03;;;;;;;;;;5052889;28;20024;-66
2023/12/13 03:22:06;;;;;;;18.88;5.65;;;;;;;;;;5061470;28;20036;-66
2023/12/13 03:24:52;;;;;;;14.18;6.13;;;;;;;;;;5052524;28;20078;-66
2023/12/13 03:27:42;;;;;;;15.10;5.45;;;;;;;;;;5061648;28;20121;-66
2023/12/13 03:30:28;;;;;;;14.27;5.80;;;;;;;;;;5073954;28;20405;-67
2023/12/13 03:33:13;;;;;;;12.95;4.65;;;;;;;;;;5084432;28;20056;-67
2023/12/13 03:35:59;;;;;;;13.25;4.32;;;;;;;;;;5058615;28;20031;-67
2023/12/13 03:38:45;;;;;;;13.13;5.70;;;;;;;;;;5072157;28;20016;-66
2023/12/13 03:41:30;;;;;;;10.55;4.35;;;;;;;;;;5073078;28;20468;-66
2023/12/13 03:44:16;;;;;;;10.35;3.95;;;;;;;;;;5071416;28;20032;-65
2023/12/13 03:47:01;;;;;;;11.32;4.82;;;;;;;;;;5053652;28;20382;-66
2023/12/13 03:49:47;;;;;;;10.32;4.55;;;;;;;;;;5056653;28;20019;-65
2023/12/13 03:52:33;;;;;;;9.60;4.22;;;;;;;;;;5057304;28;20045;-66
2023/12/13 03:55:18;;;;;;;12.55;5.13;;;;;;;;;;5060525;28;20087;-66
2023/12/13 03:58:04;;;;;;;10.00;4.65;;;;;;;;;;5069993;28;20154;-66
2023/12/13 04:00:50;;;;;;;10.32;3.80;;;;;;;;;;5072904;28;20032;-66
2023/12/13 04:03:35;;;;;;;11.65;3.92;;;;;;;;;;5052218;28;20040;-66
2023/12/13 04:06:21;;;;;;;7.35;3.33;;;;;;;;;;5053086;28;20078;-66
2023/12/13 04:09:06;;;;;;;11.98;4.00;;;;;;;;;;5064272;28;20507;-66
2023/12/13 04:11:52;;;;;;;7.13;3.50;;;;;;;;;;5071390;28;20133;-66
2023/12/13 04:14:38;;;;;;;7.55;3.70;;;;;;;;;;5072686;28;20111;-66
2023/12/13 04:17:23;;;;;;;8.50;3.75;;;;;;;;;;5071300;28;20021;-66
2023/12/13 04:20:09;;;;;;;6.85;3.22;;;;;;;;;;5069491;28;20038;-66
2023/12/13 04:22:55;;;;;;;8.55;4.25;;;;;;;;;;5052255;28;20103;-66
2023/12/13 04:25:41;;;;;;;10.48;3.65;;;;;;;;;;5052473;28;20017;-66
2023/12/13 04:28:26;;;;;;;6.95;3.70;;;;;;;;;;5051482;28;20024;-66
2023/12/13 04:31:12;;;;;;;8.57;2.97;;;;;;;;;;5056228;28;20493;-66
2023/12/13 04:33:58;;;;;;;7.78;3.08;;;;;;;;;;5040926;28;20033;-66
2023/12/13 04:36:43;;;;;;;7.97;3.35;;;;;;;;;;5053429;28;20079;-66
2023/12/13 04:39:29;;;;;;;9.57;4.03;;;;;;;;;;5050999;28;20013;-66
2023/12/13 04:42:15;;;;;;;7.63;3.53;;;;;;;;;;5056892;28;20583;-66
2023/12/13 04:45:00;;;;;;;11.57;4.00;;;;;;;;;;5037507;28;20060;-66
2023/12/13 04:47:46;;;;;;;6.10;3.03;;;;;;;;;;5059286;28;20078;-66
2023/12/13 04:50:32;;;;;;;8.43;3.92;;;;;;;;;;5071474;28;20037;-66
2023/12/13 04:53:17;;;;;;;6.50;3.67;;;;;;;;;;5062755;28;20520;-66
2023/12/13 04:56:03;;;;;;;7.57;3.40;;;;;;;;;;5037953;28;20064;-66
2023/12/13 04:58:49;;;;;;;8.35;3.58;;;;;;;;;;5054206;28;20020;-66
2023/12/13 05:01:35;;;;;;;10.05;3.70;;;;;;;;;;5071206;28;20028;-66
2023/12/13 05:04:20;;;;;;;7.45;3.88;;;;;;;;;;5070823;28;20024;-66
2023/12/13 05:07:08;;;;;;;7.10;3.72;;;;;;;;;;5071351;28;20020;-66
2023/12/13 05:09:57;;;;;;;8.80;3.08;;;;;;;;;;5043919;28;20016;-66
2023/12/13 05:12:42;;;;;;;6.82;3.47;;;;;;;;;;5071092;28;20024;-66
2023/12/13 05:15:28;;;;;;;10.70;3.35;;;;;;;;;;5070306;28;20103;-66
2023/12/13 05:18:14;;;;;;;6.57;3.25;;;;;;;;;;5059831;28;20394;-67
2023/12/13 05:21:01;;;;;;;7.05;3.80;;;;;;;;;;5036346;28;20029;-67
2023/12/13 05:23:47;;;;;;;6.38;3.08;;;;;;;;;;5059508;28;20029;-67
2023/12/13 05:26:33;;;;;;;8.93;3.45;;;;;;;;;;5051483;28;20036;-67
2023/12/13 05:29:19;;;;;;;11.93;3.90;;;;;;;;;;5041871;28;20074;-66
2023/12/13 05:32:04;;;;;;;5.22;3.08;;;;;;;;;;5071083;28;20459;-66
2023/12/13 05:34:50;;;;;;;8.23;3.65;;;;;;;;;;5070411;28;20031;-66
2023/12/13 05:37:36;;;;;;;10.43;3.40;;;;;;;;;;5071060;28;20405;-66
2023/12/13 05:40:22;;;;;;;7.97;3.42;;;;;;;;;;5071191;28;20070;-66
2023/12/13 05:43:08;;;;;;;7.22;3.55;;;;;;;;;;5052173;28;20086;-66
2023/12/13 05:45:54;;;;;;;11.70;3.55;;;;;;;;;;5058903;28;20501;-66
2023/12/13 05:48:40;;;;;;;6.20;3.03;;;;;;;;;;5059102;28;20020;-66
2023/12/13 05:51:26;;;;;;;10.25;3.92;;;;;;;;;;5066717;28;20112;-66
2023/12/13 05:54:11;;;;;;;6.43;3.72;;;;;;;;;;5054839;28;20428;-67
2023/12/13 05:56:57;;;;;;;10.60;3.03;;;;;;;;;;5056787;28;20059;-66
2023/12/13 05:59:42;;;;;;;7.22;3.35;;;;;;;;;;5074295;28;20052;-67
2023/12/13 06:02:28;;;;;;;8.20;3.15;;;;;;;;;;5074104;28;20416;-66
2023/12/13 06:05:14;;;;;;;5.47;2.90;;;;;;;;;;5073718;28;20046;-66
2023/12/13 06:08:00;;;;;;;8.93;3.80;;;;;;;;;;5067728;28;20068;-67
2023/12/13 06:10:45;;;;;;;6.22;3.05;;;;;;;;;;5054252;28;20486;-67
2023/12/13 06:13:31;;;;;;;8.45;3.22;;;;;;;;;;5061673;28;20067;-66
2023/12/13 06:16:16;;;;;;;6.97;3.25;;;;;;;;;;5060007;28;20442;-66
2023/12/13 06:19:02;;;;;;;6.10;3.22;;;;;;;;;;5053743;28;20111;-66
2023/12/13 06:21:48;;;;;;;6.82;2.83;;;;;;;;;;5054242;28;20017;-66
2023/12/13 06:24:34;;;;;;;10.00;3.45;;;;;;;;;;5063367;28;20025;-66
2023/12/13 06:27:19;;;;;;;7.82;3.67;;;;;;;;;;5054801;28;20028;-66
2023/12/13 06:30:06;;;;;;;6.47;3.33;;;;;;;;;;5051671;28;20477;-67
2023/12/13 06:32:51;;;;;;;7.20;3.17;;;;;;;;;;5073305;28;20070;-66
2023/12/13 06:35:37;;;;;;;7.38;3.20;;;;;;;;;;5064244;28;20549;-66
2023/12/13 06:38:22;;;;;;;8.73;3.58;;;;;;;;;;5073415;28;20493;-66
2023/12/13 06:41:08;;;;;;;8.05;3.88;;;;;;;;;;5065404;28;20020;-66
2023/12/13 06:43:54;;;;;;;11.57;3.95;;;;;;;;;;5073357;28;20029;-67
2023/12/13 06:46:39;;;;;;;8.93;4.05;;;;;;;;;;5061456;28;20071;-66
2023/12/13 06:49:30;;;;;;;7.03;3.08;;;;;;;;;;5052913;28;20616;-66
2023/12/13 06:52:16;;;;;;;8.48;3.70;;;;;;;;;;5058973;28;20020;-66
2023/12/13 06:55:03;;;;;;;9.25;3.58;;;;;;;;;;5072896;28;20447;-66
2023/12/13 06:57:49;;;;;;;6.55;2.90;;;;;;;;;;5072893;28;20024;-66
2023/12/13 07:00:34;;;;;;;8.20;4.25;;;;;;;;;;5073509;28;20016;-66
2023/12/13 07:03:20;;;;;;;7.20;3.00;;;;;;;;;;5072726;28;20105;-66
2023/12/13 07:06:06;;;;;;;7.53;3.03;;;;;;;;;;5073456;28;20020;-66
2023/12/13 07:08:51;;;;;;;6.90;3.30;;;;;;;;;;5082210;22;20475;-73
2023/12/13 07:11:37;;;;;;;8.90;3.97;;;;;;;;;;5052751;28;20111;-73
2023/12/13 07:14:23;;;;;;;6.53;3.13;;;;;;;;;;5052959;28;20079;-71
2023/12/13 07:17:08;;;;;;;7.18;3.38;;;;;;;;;;5038292;28;20036;-71
2023/12/13 07:19:54;;;;;;;9.70;3.65;;;;;;;;;;5032282;28;20014;-71
2023/12/13 07:22:40;;;;;;;9.95;3.58;;;;;;;;;;5033492;28;20033;-71
2023/12/13 07:25:26;;;;;;;10.60;4.38;;;;;;;;;;5029886;28;20411;-71
2023/12/13 07:28:13;;;;;;;9.93;4.00;;;;;;;;;;5014330;28;20022;-71
2023/12/13 07:31:05;;;;;;;7.03;3.47;;;;;;;;;;5011961;28;20025;-71
2023/12/13 07:33:51;;;;;;;8.63;3.38;;;;;;;;;;5013305;28;20113;-71
2023/12/13 07:36:37;;;;;;;7.07;3.65;;;;;;;;;;5026697;28;20402;-70
2023/12/13 07:39:24;;;;;;;9.73;3.67;;;;;;;;;;5032994;28;20024;-71
2023/12/13 07:42:10;;;;;;;9.57;3.28;;;;;;;;;;5018115;28;20053;-71
2023/12/13 07:44:55;;;;;;;11.18;4.40;;;;;;;;;;5012263;28;20505;-72
2023/12/13 07:47:43;;;;;;;10.73;4.18;;;;;;;;;;5015983;28;20033;-71
2023/12/13 07:50:29;;;;;;;7.03;3.58;;;;;;;;;;5017599;28;20029;-71
2023/12/13 07:53:15;;;;;;;7.20;4.10;;;;;;;;;;5015341;28;20065;-71
2023/12/13 07:56:01;;;;;;;8.63;4.05;;;;;;;;;;5031223;28;20017;-70
2023/12/13 07:58:47;;;;;;;6.60;3.65;;;;;;;;;;5032243;28;20100;-71
2023/12/13 08:01:32;;;;;;;8.13;3.67;;;;;;;;;;5031628;28;20405;-71
2023/12/13 08:04:20;;;;;;;6.30;3.47;;;;;;;;;;5031405;28;20021;-71
2023/12/13 08:07:05;;;;;;;9.82;3.60;;;;;;;;;;5024367;28;20034;-72
2023/12/13 08:09:53;;;;;;;11.77;4.10;;;;;;;;;;5024276;28;20038;-71
2023/12/13 08:12:44;;;;;;;8.95;4.22;;;;;;;;;;5012969;28;20029;-71
2023/12/13 08:15:30;;;;;;;8.68;3.72;;;;;;;;;;5010769;28;20091;-71
2023/12/13 08:18:15;;;;;;;8.80;4.57;;;;;;;;;;5017460;28;20079;-71
2023/12/13 08:21:01;;;;;;;13.15;3.47;;;;;;;;;;5031407;28;20021;-72
2023/12/13 08:23:47;;;;;;;13.85;4.53;;;;;;;;;;5029253;28;20021;-72
2023/12/13 08:26:32;;;;;;;9.50;4.28;;;;;;;;;;5027640;28;20028;-71
2023/12/13 08:29:18;;;;;;;10.20;4.20;;;;;;;;;;5031207;28;20026;-72
2023/12/13 08:32:06;;;;;;;9.40;3.78;;;;;;;;;;5015184;28;20145;-72
2023/12/13 08:34:51;;;;;;;11.63;5.10;;;;;;;;;;5012024;28;20036;-72
2023/12/13 08:37:37;;;;;;;8.88;4.80;;;;;;;;;;5029968;28;20399;-72
2023/12/13 08:40:22;;;;;;;12.23;4.75;;;;;;;;;;5030329;28;20742;-72
2023/12/13 08:43:08;;;;;;;11.25;5.25;;;;;;;;;;5015131;28;20136;-72
2023/12/13 08:45:54;;;;;;;15.13;5.03;;;;;;;;;;5009202;28;20104;-72
2023/12/13 08:48:40;;;;;;;8.13;4.05;;;;;;;;;;5027535;28;20029;-71
2023/12/13 08:51:26;;;;;;;8.52;4.80;;;;;;;;;;5031573;28;20434;-72
2023/12/13 08:54:12;;;;;;;7.63;3.70;;;;;;;;;;5023667;28;20025;-72
2023/12/13 08:56:58;;;;;;;9.57;4.63;;;;;;;;;;5012024;28;20045;-72
2023/12/13 08:59:43;;;;;;;8.77;5.13;;;;;;;;;;5020878;28;20021;-71
2023/12/13 09:02:29;;;;;;;10.75;5.28;;;;;;;;;;5030386;28;20481;-72
2023/12/13 09:05:14;;;;;;;12.27;5.32;;;;;;;;;;5030436;28;20017;-72
2023/12/13 09:08:00;;;;;;;9.88;5.55;;;;;;;;;;5029980;28;20048;-72
2023/12/13 09:10:46;;;;;;;11.30;4.47;;;;;;;;;;5029114;28;20034;-72
2023/12/13 09:13:32;;;;;;;16.80;5.88;;;;;;;;;;5029774;28;20025;-72
2023/12/13 09:16:18;;;;;;;8.80;4.60;;;;;;;;;;5029056;28;20021;-72
2023/12/13 09:19:05;;;;;;;12.55;5.35;;;;;;;;;;5029867;28;20375;-71
2023/12/13 09:21:50;;;;;;;11.77;5.22;;;;;;;;;;5020819;28;20092;-72
2023/12/13 09:24:36;;;;;;;11.90;4.63;;;;;;;;;;5014949;28;20030;-71
2023/12/13 09:27:23;;;;;;;10.60;4.70;;;;;;;;;;5020803;28;20465;-71
2023/12/13 09:30:09;;;;;;;10.57;4.68;;;;;;;;;;5033569;28;20033;-71
2023/12/13 09:32:55;;;;;;;8.07;4.10;;;;;;;;;;5032122;28;20029;-71
2023/12/13 09:35:43;;;;;;;9.60;5.05;;;;;;;;;;5034229;28;20437;-71
2023/12/13 09:38:30;;;;;;;14.98;5.22;;;;;;;;;;5033765;28;20402;-71
2023/12/13 09:41:25;;;;;;;15.63;5.40;;;;;;;;;;5033579;28;20057;-71
2023/12/13 09:44:12;;;;;;;8.43;4.25;;;;;;;;;;5033498;28;20033;-71
2023/12/13 09:47:01;;;;;;;9.93;4.78;;;;;;;;;;5033297;28;20029;-71
2023/12/13 09:49:48;;;;;;;10.43;4.97;;;;;;;;;;5034483;28;20029;-71
2023/12/13 09:52:34;;;;;;;11.63;4.57;;;;;;;;;;5026300;28;20175;-71
2023/12/13 09:55:20;;;;;;;13.98;5.47;;;;;;;;;;5013302;28;20022;-71
2023/12/13 09:58:06;;;;;;;9.63;4.10;;;;;;;;;;5020042;28;20073;-71
2023/12/13 10:00:51;;;;;;;18.73;5.22;;;;;;;;;;5023432;28;20029;-71
2023/12/13 10:03:39;;;;;;;8.98;4.00;;;;;;;;;;5033466;28;20025;-70
2023/12/13 10:06:24;;;;;;;12.52;4.47;;;;;;;;;;5027036;28;20546;-71
2023/12/13 10:09:10;;;;;;;11.35;4.57;;;;;;;;;;5020470;28;20037;-70
2023/12/13 10:11:56;;;;;;;9.30;4.15;;;;;;;;;;5012266;28;20038;-70
2023/12/13 10:14:43;;;;;;;8.95;4.40;;;;;;;;;;5022872;28;20029;-69
2023/12/13 10:17:28;;;;;;;8.15;3.97;;;;;;;;;;5031619;28;20037;-70
2023/12/13 10:20:14;;;;;;;11.93;4.97;;;;;;;;;;5013337;28;20491;-70
2023/12/13 10:22:59;;;;;;;11.43;3.92;;;;;;;;;;5015550;28;20028;-70
2023/12/13 10:25:45;;;;;;;10.85;3.60;;;;;;;;;;5014531;28;20022;-70
2023/12/13 10:28:35;;;;;;;8.05;3.15;;;;;;;;;;5011368;28;20022;-70
2023/12/13 10:31:22;;;;;;;9.70;3.53;;;;;;;;;;5014890;28;20112;-69
2023/12/13 10:34:07;;;;;;;10.48;3.17;;;;;;;;;;5011276;28;20022;-69
2023/12/13 10:36:54;;;;;;;7.05;3.90;;;;;;;;;;5031787;28;20033;-70
2023/12/13 10:39:44;;;;;;;7.28;3.45;;;;;;;;;;5031736;28;20449;-71
2023/12/13 10:42:30;;;;;;;8.13;3.60;;;;;;;;;;5016623;28;20037;-71
2023/12/13 10:45:17;;;;;;;11.35;4.63;;;;;;;;;;5013423;28;20037;-72
2023/12/13 10:48:07;;;;;;;9.82;3.40;;;;;;;;;;5024209;28;20502;-71
2023/12/13 10:50:55;;;;;;;9.18;3.20;;;;;;;;;;5032500;28;20021;-72
2023/12/13 10:53:41;;;;;;;10.23;3.85;;;;;;;;;;5026201;28;20084;-71
2023/12/13 10:56:27;;;;;;;9.48;3.67;;;;;;;;;;5012362;28;20521;-71
2023/12/13 10:59:14;;;;;;;8.25;4.10;;;;;;;;;;5015448;28;20021;-72
2023/12/13 11:02:00;;;;;;;7.93;3.78;;;;;;;;;;5012685;28;20080;-71
2023/12/13 11:04:47;;;;;;;14.90;4.47;;;;;;;;;;5016451;28;20025;-72
2023/12/13 11:07:43;;;;;;;8.57;4.35;;;;;;;;;;5015495;28;20025;-72
2023/12/13 11:10:29;;;;;;;19.40;4.65;;;;;;;;;;5011563;28;20022;-72
2023/12/13 11:13:21;;;;;;;10.38;4.78;;;;;;;;;;5013541;28;20029;-71
2023/12/13 11:16:24;;;;;;;12.68;4.35;;;;;;;;;;5012436;28;20491;-71
2023/12/13 11:19:11;;;;;;;9.23;3.78;;;;;;;;;;5030643;28;20025;-71
2023/12/13 11:21:57;;;;;;;13.57;4.97;;;;;;;;;;5033213;28;20100;-71
2023/12/13 11:24:43;;;;;;;11.77;5.25;;;;;;;;;;5031300;28;20067;-71
2023/12/13 11:27:30;;;;;;;12.75;4.82;;;;;;;;;;5029670;28;20021;-72
2023/12/13 11:30:16;;;;;;;12.80;4.93;;;;;;;;;;5025634;28;20510;-72
2023/12/13 11:33:10;;;;;;;12.32;4.43;;;;;;;;;;5013333;28;20406;-73
2023/12/13 11:35:56;;;;;;;11.88;4.72;;;;;;;;;;5015677;28;20380;-73
2023/12/13 11:38:41;;;;;;;10.93;5.03;;;;;;;;;;5013445;28;20105;-73
2023/12/13 11:41:27;;;;;;;17.92;4.75;;;;;;;;;;5032526;28;20080;-72
2023/12/13 11:44:14;;;;;;;18.48;5.65;;;;;;;;;;5031831;28;20025;-72
2023/12/13 11:47:01;;;;;;;18.70;5.15;;;;;;;;;;5031078;28;20120;-72
2023/12/13 11:49:46;;;;;;;12.05;4.50;;;;;;;;;;5030766;28;20087;-72
2023/12/13 11:52:32;;;;;;;11.00;4.45;;;;;;;;;;5032458;28;20383;-73
2023/12/13 11:55:19;;;;;;;10.50;5.50;;;;;;;;;;5032104;28;20026;-73
2023/12/13 11:58:05;;;;;;;18.65;4.55;;;;;;;;;;5031285;28;20076;-72
2023/12/13 12:00:51;;;;;;;12.32;4.95;;;;;;;;;;5031236;28;20028;-73
2023/12/13 12:03:37;;;;;;;10.73;4.80;;;;;;;;;;5030445;28;20390;-73
2023/12/13 12:06:22;;;;;;;10.70;4.75;;;;;;;;;;5015902;28;20175;-73
2023/12/13 12:09:08;;;;;;;12.82;4.97;;;;;;;;;;5015045;28;20030;-73
2023/12/13 12:11:54;;;;;;;10.63;4.20;;;;;;;;;;5026811;28;20033;-73
2023/12/13 12:14:41;;;;;;;17.65;4.55;;;;;;;;;;5022939;28;20025;-73
2023/12/13 12:17:27;;;;;;;7.95;4.93;;;;;;;;;;5025988;28;20055;-74
2023/12/13 12:20:13;;;;;;;10.48;4.70;;;;;;;;;;5033155;28;20040;-73
2023/12/13 12:23:01;;;;;;;10.80;5.43;;;;;;;;;;5029958;28;20471;-74
2023/12/13 12:25:46;;;;;;;13.75;4.50;;;;;;;;;;5019842;28;20033;-74
2023/12/13 12:28:32;;;;;;;11.65;4.30;;;;;;;;;;5017842;28;20030;-73
2023/12/13 12:31:18;;;;;;;14.88;5.28;;;;;;;;;;5011830;28;20060;-74
2023/12/13 12:34:04;;;;;;;19.13;5.68;;;;;;;;;;5008718;28;20021;-73
2023/12/13 12:36:50;;;;;;;13.70;4.97;;;;;;;;;;5031938;28;20111;-73
2023/12/13 12:39:35;;;;;;;8.98;4.53;;;;;;;;;;5031236;28;20023;-73
2023/12/13 12:42:21;;;;;;;16.60;4.63;;;;;;;;;;5030948;28;20022;-72
2023/12/13 12:45:07;;;;;;;10.60;4.25;;;;;;;;;;5030378;28;20021;-73
2023/12/13 12:47:53;;;;;;;12.40;4.07;;;;;;;;;;5030169;28;20375;-73
2023/12/13 12:50:38;;;;;;;10.13;4.57;;;;;;;;;;5013693;28;20030;-73
2023/12/13 12:53:24;;;;;;;10.07;3.95;;;;;;;;;;5009478;28;20033;-73
2023/12/13 12:56:10;;;;;;;10.68;4.50;;;;;;;;;;5015958;28;20044;-73
2023/12/13 12:58:56;;;;;;;13.00;5.25;;;;;;;;;;5034102;28;20025;-74
2023/12/13 13:01:43;;;;;;;10.05;4.25;;;;;;;;;;5035739;28;20021;-73
2023/12/13 13:04:28;;;;;;;13.73;5.25;;;;;;;;;;5035290;28;20105;-73
2023/12/13 13:07:14;;;;;;;10.05;4.28;;;;;;;;;;5035509;28;20025;-73
2023/12/13 13:10:00;;;;;;;14.95;5.95;;;;;;;;;;5096464;22;20107;-68
2023/12/13 13:12:46;;;;;;;13.18;5.88;;;;;;;;;;5054604;28;20049;-68
2023/12/13 13:15:32;;;;;;;14.27;6.63;;;;;;;;;;5055375;28;20025;-67
2023/12/13 13:18:17;;;;;;;10.05;4.63;;;;;;;;;;5053928;28;20029;-67
2023/12/13 13:21:03;;;;;;;14.75;6.95;;;;;;;;;;5038462;28;20375;-67
2023/12/13 13:23:49;;;;;;;13.18;5.57;;;;;;;;;;5015159;28;20033;-67
2023/12/13 13:26:36;;;;;;;16.00;5.63;;;;;;;;;;5023620;28;20033;-67
2023/12/13 13:29:21;;;;;;;15.98;5.85;;;;;;;;;;5015751;28;20049;-67
2023/12/13 13:32:08;;;;;;;16.23;5.65;;;;;;;;;;5020716;28;20025;-67
2023/12/13 13:34:55;;;;;;;16.27;6.40;;;;;;;;;;5015395;28;20026;-67
2023/12/13 13:37:41;;;;;;;18.40;6.97;;;;;;;;;;5017131;28;20021;-67
2023/12/13 13:40:26;;;;;;;18.75;6.97;;;;;;;;;;5053363;28;20045;-67
2023/12/13 13:43:12;;;;;;;19.85;6.72;;;;;;;;;;5055583;28;20032;-67
2023/12/13 13:45:58;;;;;;;12.48;5.90;;;;;;;;;;5053548;28;20116;-67
2023/12/13 13:48:43;;;;;;;14.52;6.25;;;;;;;;;;5053656;28;20024;-67
2023/12/13 13:51:29;;;;;;;15.45;7.15;;;;;;;;;;5042127;28;20030;-67
2023/12/13 13:54:15;;;;;;;14.43;5.30;;;;;;;;;;5033842;28;20022;-67
2023/12/13 13:57:04;;;;;;;14.02;5.90;;;;;;;;;;5028990;28;20026;-67
2023/12/13 13:59:49;;;;;;;18.35;6.65;;;;;;;;;;5034472;28;20029;-67
2023/12/13 14:02:35;;;;;;;19.92;6.72;;;;;;;;;;5035243;28;20112;-67
2023/12/13 14:05:21;;;;;;;18.75;7.32;;;;;;;;;;5035003;28;20022;-68
2023/12/13 14:08:09;;;;;;;14.38;6.43;;;;;;;;;;5033689;28;20100;-68
2023/12/13 14:10:55;;;;;;;17.05;8.02;;;;;;;;;;5033553;28;20116;-68
2023/12/13 14:13:40;;;;;;;15.93;5.88;;;;;;;;;;5035643;28;20033;-68
2023/12/13 14:16:26;;;;;;;19.52;7.28;;;;;;;;;;5024333;28;20029;-67
2023/12/13 14:19:11;;;;;;;17.38;6.78;;;;;;;;;;5030125;28;20021;-67
2023/12/13 14:21:57;;;;;;;14.02;5.70;;;;;;;;;;5033977;28;20024;-67
2023/12/13 14:24:43;;;;;;;17.50;6.82;;;;;;;;;;5020339;28;20029;-67
2023/12/13 14:27:29;;;;;;;14.82;6.28;;;;;;;;;;5014768;28;20104;-68
2023/12/13 14:30:14;;;;;;;20.83;7.75;;;;;;;;;;5040761;28;20013;-68
2023/12/13 14:33:00;;;;;;;18.92;6.70;;;;;;;;;;5052892;28;20021;-67
2023/12/13 14:35:46;;;;;;;15.35;6.93;;;;;;;;;;5043846;28;20033;-67
2023/12/13 14:38:33;;;;;;;15.25;5.93;;;;;;;;;;5032848;28;20035;-67
2023/12/13 14:41:19;;;;;;;16.77;6.32;;;;;;;;;;5039876;28;20017;-67
2023/12/13 14:44:05;;;;;;;14.35;6.18;;;;;;;;;;5053422;28;20021;-67
2023/12/13 14:46:51;;;;;;;16.52;8.02;;;;;;;;;;5053745;28;20440;-67
2023/12/13 14:49:36;;;;;;;12.48;5.78;;;;;;;;;;5052520;28;20025;-67
2023/12/13 14:52:23;;;;;;;14.32;6.05;;;;;;;;;;5052252;28;20031;-67
2023/12/13 14:55:08;;;;;;;18.10;6.78;;;;;;;;;;5014414;28;20026;-67
2023/12/13 14:57:54;;;;;;;12.43;5.45;;;;;;;;;;5013724;28;20022;-67
2023/12/13 15:00:40;;;;;;;15.88;7.18;;;;;;;;;;5030145;28;20075;-67
2023/12/13 15:03:26;;;;;;;16.85;6.30;;;;;;;;;;5033183;28;20542;-67
2023/12/13 15:06:11;;;;;;;18.38;7.60;;;;;;;;;;5021820;28;20395;-67
2023/12/13 15:08:57;;;;;;;24.70;8.82;;;;;;;;;;5012107;28;20026;-67
2023/12/13 15:11:43;;;;;;;20.00;8.63;;;;;;;;;;5029199;28;20034;-67
2023/12/13 15:14:30;;;;;;;23.17;7.72;;;;;;;;;;5033437;28;20022;-67
2023/12/13 15:17:15;;;;;;;18.00;7.15;;;;;;;;;;5032837;28;20021;-67
2023/12/13 15:20:04;;;;;;;17.02;7.88;;;;;;;;;;5031686;28;20068;-67
2023/12/13 15:22:49;;;;;;;20.35;7.13;;;;;;;;;;5022119;28;20423;-67
2023/12/13 15:25:35;;;;;;;22.55;8.38;;;;;;;;;;5012874;28;20018;-67
2023/12/13 15:28:20;;;;;;;17.27;7.25;;;;;;;;;;5017398;28;20072;-66
2023/12/13 15:31:06;;;;;;;16.90;7.43;;;;;;;;;;5013134;28;20062;-67
2023/12/13 15:33:52;;;;;;;22.42;8.68;;;;;;;;;;5023812;28;20029;-67
2023/12/13 15:36:41;;;;;;;23.40;8.60;;;;;;;;;;5033148;28;20033;-67
2023/12/13 15:39:27;;;;;;;21.92;7.70;;;;;;;;;;5039435;23;20045;-67
2023/12/13 15:42:13;;;;;;;20.35;7.82;;;;;;;;;;5032848;28;20034;-67
2023/12/13 15:44:58;;;;;;;18.58;8.52;;;;;;;;;;5029730;28;20037;-67
2023/12/13 15:47:44;;;;;;;21.98;8.82;;;;;;;;;;5024933;28;20037;-67
2023/12/13 15:50:29;;;;;;;18.70;8.57;;;;;;;;;;5013083;28;20026;-67
2023/12/13 15:53:15;;;;;;;23.98;9.23;;;;;;;;;;5019867;28;20025;-67
2023/12/13 15:56:01;;;;;;;21.67;8.02;;;;;;;;;;5031761;28;20076;-67
2023/12/13 15:58:46;;;;;;;24.75;8.15;;;;;;;;;;5031161;28;20106;-67
2023/12/13 16:01:32;;;;;;;22.75;8.85;;;;;;;;;;5030214;28;20111;-67
2023/12/13 16:04:18;;;;;;;23.33;7.78;;;;;;;;;;5012614;28;20153;-67
2023/12/13 16:07:03;;;;;;;22.10;8.60;;;;;;;;;;5028702;28;20391;-67
2023/12/13 16:09:49;;;;;;;17.25;8.57;;;;;;;;;;5030696;28;20053;-67
2023/12/13 16:12:35;;;;;;;21.92;8.73;;;;;;;;;;5031545;28;20037;-67
2023/12/13 16:15:23;;;;;;;15.35;7.40;;;;;;;;;;5031193;28;20052;-67
2023/12/13 16:18:09;;;;;;;19.08;7.60;;;;;;;;;;5031944;28;20072;-67
2023/12/13 16:20:55;;;;;;;20.88;8.63;;;;;;;;;;5031864;28;20541;-67
2023/12/13 16:23:41;;;;;;;19.13;7.95;;;;;;;;;;5031129;28;20096;-67
2023/12/13 16:26:27;;;;;;;22.08;8.70;;;;;;;;;;5022987;28;20422;-68